createdAt,value
2017-08-30T00:00:46.415Z,0
2017-08-30T00:01:47.072Z,0
2017-08-30T00:02:47.727Z,0
2017-08-30T00:03:48.633Z,0
2017-08-30T00:04:49.288Z,0
2017-08-30T00:05:49.945Z,0
2017-08-30T00:06:50.600Z,0
2017-08-30T00:07:51.258Z,0
2017-08-30T00:08:52.197Z,0
2017-08-30T00:09:52.854Z,0
2017-08-30T00:10:53.508Z,0
2017-08-30T00:11:54.174Z,0
2017-08-30T00:12:54.866Z,0
2017-08-30T00:13:55.771Z,0
2017-08-30T00:14:56.429Z,0
2017-08-30T00:15:57.084Z,0
2017-08-30T00:16:57.740Z,0
2017-08-30T00:17:58.396Z,0
2017-08-30T00:18:59.387Z,0
2017-08-30T00:20:00.044Z,0
2017-08-30T00:21:00.699Z,0
2017-08-30T00:22:01.391Z,0
2017-08-30T00:23:02.047Z,0
2017-08-30T00:24:03.003Z,0
2017-08-30T00:25:03.695Z,0
2017-08-30T00:26:04.351Z,0
2017-08-30T00:27:05.006Z,0
2017-08-30T00:28:05.662Z,0
2017-08-30T00:29:06.619Z,0
2017-08-30T00:30:07.275Z,0
2017-08-30T00:31:07.933Z,0
2017-08-30T00:32:08.623Z,0
2017-08-30T00:33:09.278Z,0
2017-08-30T00:34:10.185Z,0
2017-08-30T00:35:10.842Z,0
2017-08-30T00:36:11.497Z,0
2017-08-30T00:37:12.154Z,0
2017-08-30T00:38:12.811Z,0
2017-08-30T00:39:13.766Z,0
2017-08-30T00:40:14.422Z,0
2017-08-30T00:41:15.077Z,0
2017-08-30T00:42:15.736Z,0
2017-08-30T00:43:16.392Z,0
2017-08-30T00:44:17.298Z,0
2017-08-30T00:45:17.955Z,0
2017-08-30T00:46:18.613Z,0
2017-08-30T00:47:19.301Z,0
2017-08-30T00:48:19.959Z,0
2017-08-30T00:49:20.864Z,0
2017-08-30T00:50:21.519Z,0
2017-08-30T00:51:22.177Z,0
2017-08-30T00:52:22.832Z,0
2017-08-30T00:53:23.489Z,0
2017-08-30T00:54:24.445Z,0
2017-08-30T00:55:25.100Z,0
2017-08-30T00:56:25.760Z,0
2017-08-30T00:57:26.412Z,0
2017-08-30T00:58:27.070Z,0
2017-08-30T00:59:27.976Z,0
2017-08-30T01:00:28.631Z,0
2017-08-30T01:01:29.289Z,0
2017-08-30T01:02:29.943Z,0
2017-08-30T01:03:30.598Z,0
2017-08-30T01:04:31.506Z,0
2017-08-30T01:05:32.160Z,0
2017-08-30T01:06:32.817Z,0
2017-08-30T01:07:33.523Z,0
2017-08-30T01:08:34.173Z,0
2017-08-30T01:09:35.079Z,0
2017-08-30T01:10:35.735Z,0
2017-08-30T01:11:36.426Z,0
2017-08-30T01:12:37.081Z,0
2017-08-30T01:13:37.739Z,0
2017-08-30T01:14:38.651Z,0
2017-08-30T01:15:39.309Z,0
2017-08-30T01:16:39.965Z,0
2017-08-30T01:17:40.621Z,0
2017-08-30T01:18:41.281Z,0
2017-08-30T01:19:42.269Z,0
2017-08-30T01:20:42.926Z,0
2017-08-30T01:21:43.582Z,0
2017-08-30T01:22:44.237Z,0
2017-08-30T01:23:44.895Z,0
2017-08-30T01:24:45.801Z,0
2017-08-30T01:25:46.456Z,0
2017-08-30T01:26:47.113Z,0
2017-08-30T01:27:47.774Z,0
2017-08-30T01:28:48.426Z,0
2017-08-30T01:29:49.408Z,0
2017-08-30T01:30:50.074Z,0
2017-08-30T01:31:50.729Z,0
2017-08-30T01:32:51.386Z,0
2017-08-30T01:33:52.042Z,0
2017-08-30T01:34:52.949Z,0
2017-08-30T01:35:53.606Z,0
2017-08-30T01:36:54.264Z,0
2017-08-30T01:37:54.956Z,0
2017-08-30T01:38:55.621Z,0
2017-08-30T01:39:56.527Z,0
2017-08-30T01:40:57.183Z,0
2017-08-30T01:41:57.839Z,0
2017-08-30T01:42:58.496Z,0
2017-08-30T01:43:59.163Z,0
2017-08-30T01:45:00.060Z,0
2017-08-30T01:46:00.716Z,0
2017-08-30T01:47:01.372Z,0
2017-08-30T01:48:02.030Z,0
2017-08-30T01:49:02.686Z,0
2017-08-30T01:50:03.593Z,0
2017-08-30T01:51:04.249Z,0
2017-08-30T01:52:04.905Z,0
2017-08-30T01:53:05.562Z,0
2017-08-30T01:54:06.218Z,0
2017-08-30T01:55:07.173Z,0
2017-08-30T01:56:07.830Z,0
2017-08-30T01:57:08.521Z,0
2017-08-30T01:58:09.176Z,0
2017-08-30T01:59:09.834Z,0
2017-08-30T02:00:10.740Z,0
2017-08-30T02:01:11.396Z,0
2017-08-30T02:02:12.053Z,0
2017-08-30T02:03:12.723Z,0
2017-08-30T02:04:13.364Z,0
2017-08-30T02:05:14.273Z,0
2017-08-30T02:06:14.933Z,0
2017-08-30T02:07:15.591Z,0
2017-08-30T02:08:16.246Z,0
2017-08-30T02:09:16.903Z,0
2017-08-30T02:10:17.859Z,0
2017-08-30T02:11:18.517Z,0
2017-08-30T02:12:19.174Z,0
2017-08-30T02:13:19.831Z,0
2017-08-30T02:14:20.486Z,0
2017-08-30T02:15:21.392Z,0
2017-08-30T02:16:22.047Z,0
2017-08-30T02:17:22.704Z,0
2017-08-30T02:18:23.358Z,0
2017-08-30T02:19:24.014Z,0
2017-08-30T02:20:24.957Z,0
2017-08-30T02:21:25.612Z,0
2017-08-30T02:22:26.267Z,0
2017-08-30T02:23:26.925Z,0
2017-08-30T02:24:27.583Z,0
2017-08-30T02:25:28.490Z,0
2017-08-30T02:26:29.146Z,0
2017-08-30T02:27:29.802Z,0
2017-08-30T02:28:30.458Z,0
2017-08-30T02:29:31.114Z,0
2017-08-30T02:30:32.020Z,0
2017-08-30T02:31:32.676Z,0
2017-08-30T02:32:33.332Z,0
2017-08-30T02:33:33.988Z,0
2017-08-30T02:34:34.645Z,0
2017-08-30T02:35:35.551Z,0
2017-08-30T02:36:36.206Z,0
2017-08-30T02:37:36.862Z,0
2017-08-30T02:38:37.522Z,0
2017-08-30T02:39:38.174Z,0
2017-08-30T02:40:39.084Z,0
2017-08-30T02:41:39.739Z,0
2017-08-30T02:42:40.394Z,0
2017-08-30T02:43:41.051Z,0
2017-08-30T02:44:41.706Z,0
2017-08-30T02:45:42.613Z,0
2017-08-30T02:46:43.270Z,0
2017-08-30T02:47:43.926Z,0
2017-08-30T02:48:44.582Z,0
2017-08-30T02:49:45.239Z,0
2017-08-30T02:50:46.196Z,0
2017-08-30T02:51:46.853Z,0
2017-08-30T02:52:47.507Z,0
2017-08-30T02:53:48.165Z,0
2017-08-30T02:54:48.819Z,0
2017-08-30T02:55:49.726Z,0
2017-08-30T02:56:50.383Z,0
2017-08-30T02:57:51.039Z,0
2017-08-30T02:58:51.696Z,0
2017-08-30T02:59:52.353Z,0
2017-08-30T03:00:53.308Z,0
2017-08-30T03:01:53.963Z,0
2017-08-30T03:02:54.618Z,0
2017-08-30T03:03:55.282Z,0
2017-08-30T03:04:55.932Z,0
2017-08-30T03:05:56.838Z,0
2017-08-30T03:06:57.503Z,0
2017-08-30T03:07:58.158Z,0
2017-08-30T03:08:58.816Z,0
2017-08-30T03:09:59.473Z,0
2017-08-30T03:11:00.431Z,0
2017-08-30T03:12:01.089Z,0
2017-08-30T03:13:01.755Z,0
2017-08-30T03:14:02.437Z,0
2017-08-30T03:15:03.097Z,0
2017-08-30T03:16:04.034Z,0
2017-08-30T03:17:04.691Z,0
2017-08-30T03:18:05.347Z,0
2017-08-30T03:19:06.004Z,0
2017-08-30T03:20:06.660Z,0
2017-08-30T03:21:07.617Z,0
2017-08-30T03:22:08.275Z,0
2017-08-30T03:23:08.929Z,0
2017-08-30T03:24:09.587Z,0
2017-08-30T03:25:10.244Z,0
2017-08-30T03:26:11.200Z,0
2017-08-30T03:27:11.857Z,0
2017-08-30T03:28:12.512Z,0
2017-08-30T03:29:13.168Z,0
2017-08-30T03:30:13.825Z,0
2017-08-30T03:31:14.732Z,0
2017-08-30T03:32:15.387Z,0
2017-08-30T03:33:16.043Z,0
2017-08-30T03:34:16.701Z,0
2017-08-30T03:35:17.357Z,0
2017-08-30T03:36:18.298Z,0
2017-08-30T03:37:18.955Z,0
2017-08-30T03:38:19.611Z,0
2017-08-30T03:39:20.269Z,0
2017-08-30T03:40:20.925Z,0
2017-08-30T03:41:21.831Z,0
2017-08-30T03:42:22.487Z,0
2017-08-30T03:43:23.144Z,0
2017-08-30T03:44:23.799Z,0
2017-08-30T03:45:24.491Z,0
2017-08-30T03:46:25.399Z,0
2017-08-30T03:47:26.057Z,0
2017-08-30T03:48:26.712Z,0
2017-08-30T03:49:27.377Z,0
2017-08-30T03:50:28.032Z,0
2017-08-30T03:51:28.937Z,0
2017-08-30T03:52:29.593Z,0
2017-08-30T03:53:30.259Z,0
2017-08-30T03:54:30.913Z,0
2017-08-30T03:55:31.573Z,0
2017-08-30T03:56:32.479Z,0
2017-08-30T03:57:33.147Z,0
2017-08-30T03:58:33.805Z,0
2017-08-30T03:59:34.448Z,0
2017-08-30T04:00:35.109Z,0
2017-08-30T04:01:36.061Z,0
2017-08-30T04:02:36.719Z,0
2017-08-30T04:03:37.376Z,0
2017-08-30T04:04:38.036Z,0
2017-08-30T04:05:38.725Z,0
2017-08-30T04:06:39.632Z,0
2017-08-30T04:07:40.289Z,0
2017-08-30T04:08:40.947Z,0
2017-08-30T04:09:41.603Z,0
2017-08-30T04:10:42.264Z,0
2017-08-30T04:11:43.170Z,0
2017-08-30T04:12:43.825Z,0
2017-08-30T04:13:44.484Z,0
2017-08-30T04:14:45.141Z,0
2017-08-30T04:15:45.798Z,0
2017-08-30T04:16:46.742Z,0
2017-08-30T04:17:47.400Z,0
2017-08-30T04:18:48.059Z,0
2017-08-30T04:19:48.716Z,0
2017-08-30T04:20:49.376Z,0
2017-08-30T04:21:50.284Z,0
2017-08-30T04:22:50.945Z,0
2017-08-30T04:23:51.602Z,0
2017-08-30T04:24:52.264Z,0
2017-08-30T04:25:52.919Z,0
2017-08-30T04:26:53.827Z,0
2017-08-30T04:27:54.487Z,5
2017-08-30T04:28:55.145Z,5
2017-08-30T04:29:55.802Z,5
2017-08-30T04:30:56.459Z,5
2017-08-30T04:31:57.419Z,5
2017-08-30T04:32:58.078Z,5
2017-08-30T04:33:58.734Z,5
2017-08-30T04:34:59.392Z,5
2017-08-30T04:36:00.051Z,5
2017-08-30T04:37:00.959Z,5
2017-08-30T04:38:01.618Z,11
2017-08-30T04:39:02.276Z,11
2017-08-30T04:40:02.937Z,11
2017-08-30T04:41:03.595Z,11
2017-08-30T04:42:04.503Z,11
2017-08-30T04:43:05.164Z,11
2017-08-30T04:44:05.824Z,11
2017-08-30T04:45:06.483Z,16
2017-08-30T04:46:07.142Z,16
2017-08-30T04:47:08.053Z,16
2017-08-30T04:48:08.716Z,16
2017-08-30T04:49:09.377Z,16
2017-08-30T04:50:10.038Z,16
2017-08-30T04:51:10.697Z,16
2017-08-30T04:52:11.609Z,16
2017-08-30T04:53:12.271Z,22
2017-08-30T04:54:12.932Z,22
2017-08-30T04:55:13.592Z,22
2017-08-30T04:56:14.252Z,22
2017-08-30T04:57:15.173Z,22
2017-08-30T04:58:15.830Z,22
2017-08-30T04:59:16.491Z,28
2017-08-30T05:00:17.151Z,28
2017-08-30T05:01:17.812Z,28
2017-08-30T05:02:18.723Z,28
2017-08-30T05:03:19.421Z,28
2017-08-30T05:04:20.079Z,28
2017-08-30T05:05:20.740Z,33
2017-08-30T05:06:21.401Z,33
2017-08-30T05:07:22.312Z,33
2017-08-30T05:08:22.971Z,33
2017-08-30T05:09:23.631Z,33
2017-08-30T05:10:24.291Z,33
2017-08-30T05:11:24.950Z,39
2017-08-30T05:12:25.863Z,39
2017-08-30T05:13:26.527Z,39
2017-08-30T05:14:27.185Z,39
2017-08-30T05:15:27.846Z,39
2017-08-30T05:16:28.506Z,39
2017-08-30T05:17:29.467Z,45
2017-08-30T05:18:30.128Z,45
2017-08-30T05:20:14.658Z,45
2017-08-30T05:21:15.321Z,45
2017-08-30T05:22:15.982Z,45
2017-08-30T05:23:16.893Z,45
2017-08-30T05:24:17.559Z,50
2017-08-30T05:25:18.216Z,50
2017-08-30T05:26:18.882Z,50
2017-08-30T05:27:19.536Z,50
2017-08-30T05:28:20.446Z,50
2017-08-30T05:29:21.109Z,50
2017-08-30T05:30:21.770Z,56
2017-08-30T05:31:22.430Z,56
2017-08-30T05:32:23.091Z,56
2017-08-30T05:33:24.001Z,56
2017-08-30T05:34:24.663Z,56
2017-08-30T05:35:25.364Z,56
2017-08-30T05:36:26.025Z,56
2017-08-30T05:37:26.685Z,56
2017-08-30T05:38:27.597Z,56
2017-08-30T05:39:28.257Z,56
2017-08-30T05:40:28.918Z,56
2017-08-30T05:41:29.578Z,56
2017-08-30T05:42:30.238Z,56
2017-08-30T05:43:31.150Z,56
2017-08-30T05:44:31.810Z,56
2017-08-30T05:45:32.474Z,61
2017-08-30T05:46:33.131Z,61
2017-08-30T05:47:33.793Z,61
2017-08-30T05:48:34.705Z,61
2017-08-30T05:49:35.364Z,61
2017-08-30T05:50:36.026Z,61
2017-08-30T05:51:36.689Z,61
2017-08-30T05:52:37.350Z,67
2017-08-30T05:53:38.264Z,67
2017-08-30T05:54:38.923Z,67
2017-08-30T05:55:39.583Z,67
2017-08-30T05:56:40.244Z,67
2017-08-30T05:57:40.911Z,67
2017-08-30T05:58:41.820Z,67
2017-08-30T05:59:42.480Z,67
2017-08-30T06:00:43.142Z,73
2017-08-30T06:01:43.803Z,73
2017-08-30T06:02:44.465Z,73
2017-08-30T06:03:45.425Z,73
2017-08-30T06:04:46.085Z,73
2017-08-30T06:05:46.744Z,73
2017-08-30T06:06:47.415Z,73
2017-08-30T06:07:48.067Z,73
2017-08-30T06:08:48.979Z,78
2017-08-30T06:09:49.640Z,78
2017-08-30T06:10:50.301Z,78
2017-08-30T06:11:50.962Z,78
2017-08-30T06:12:51.624Z,78
2017-08-30T06:13:52.585Z,78
2017-08-30T06:14:53.244Z,78
2017-08-30T06:15:53.907Z,78
2017-08-30T06:16:54.585Z,84
2017-08-30T06:17:55.248Z,84
2017-08-30T06:18:56.207Z,84
2017-08-30T06:19:56.870Z,84
2017-08-30T06:20:57.532Z,84
2017-08-30T06:21:58.192Z,84
2017-08-30T06:22:58.853Z,84
2017-08-30T06:23:59.764Z,84
2017-08-30T06:25:00.428Z,90
2017-08-30T06:26:01.090Z,90
2017-08-30T06:27:01.753Z,90
2017-08-30T06:28:02.447Z,90
2017-08-30T06:29:03.359Z,90
2017-08-30T06:30:04.020Z,90
2017-08-30T06:31:04.681Z,90
2017-08-30T06:32:05.344Z,90
2017-08-30T06:33:06.004Z,90
2017-08-30T06:34:06.968Z,95
2017-08-30T06:35:07.631Z,95
2017-08-30T06:36:08.290Z,95
2017-08-30T06:37:08.952Z,95
2017-08-30T06:38:09.613Z,95
2017-08-30T06:39:10.574Z,95
2017-08-30T06:40:11.236Z,95
2017-08-30T06:41:11.902Z,95
2017-08-30T06:42:12.559Z,95
2017-08-30T06:43:13.221Z,101
2017-08-30T06:44:14.184Z,101
2017-08-30T06:45:14.846Z,101
2017-08-30T06:46:15.510Z,101
2017-08-30T06:47:16.174Z,101
2017-08-30T06:48:16.836Z,101
2017-08-30T06:49:17.797Z,101
2017-08-30T06:50:18.463Z,101
2017-08-30T06:51:19.124Z,101
2017-08-30T06:52:19.787Z,101
2017-08-30T06:53:20.451Z,106
2017-08-30T06:54:21.363Z,106
2017-08-30T06:55:22.026Z,106
2017-08-30T06:56:22.689Z,106
2017-08-30T06:57:23.356Z,106
2017-08-30T06:58:24.060Z,106
2017-08-30T06:59:24.975Z,106
2017-08-30T07:00:25.638Z,106
2017-08-30T07:01:26.302Z,106
2017-08-30T07:02:26.965Z,106
2017-08-30T07:03:27.627Z,106
2017-08-30T07:04:28.547Z,106
2017-08-30T07:05:29.206Z,106
2017-08-30T07:06:29.867Z,112
2017-08-30T07:07:30.530Z,112
2017-08-30T07:08:31.193Z,106
2017-08-30T07:09:32.105Z,106
2017-08-30T07:10:32.768Z,106
2017-08-30T07:11:33.430Z,106
2017-08-30T07:12:34.094Z,106
2017-08-30T07:13:34.757Z,106
2017-08-30T07:14:35.669Z,112
2017-08-30T07:15:36.332Z,112
2017-08-30T07:16:36.996Z,112
2017-08-30T07:17:37.659Z,112
2017-08-30T07:18:38.322Z,112
2017-08-30T07:19:39.235Z,112
2017-08-30T07:20:39.898Z,112
2017-08-30T07:21:40.561Z,112
2017-08-30T07:22:41.226Z,112
2017-08-30T07:23:41.891Z,112
2017-08-30T07:24:42.839Z,118
2017-08-30T07:25:43.503Z,118
2017-08-30T07:26:44.201Z,118
2017-08-30T07:27:44.865Z,118
2017-08-30T07:28:45.528Z,118
2017-08-30T07:29:46.452Z,118
2017-08-30T07:30:47.117Z,118
2017-08-30T07:31:47.780Z,123
2017-08-30T07:32:48.491Z,123
2017-08-30T07:33:49.154Z,123
2017-08-30T07:34:50.067Z,123
2017-08-30T07:35:50.735Z,123
2017-08-30T07:36:51.399Z,123
2017-08-30T07:37:52.064Z,129
2017-08-30T07:38:52.727Z,129
2017-08-30T07:39:53.640Z,129
2017-08-30T07:40:54.304Z,129
2017-08-30T07:41:54.972Z,129
2017-08-30T07:42:55.632Z,135
2017-08-30T07:43:56.297Z,135
2017-08-30T07:44:57.212Z,135
2017-08-30T07:45:57.877Z,135
2017-08-30T07:46:58.543Z,135
2017-08-30T07:47:59.207Z,140
2017-08-30T07:48:59.873Z,140
2017-08-30T07:50:00.841Z,140
2017-08-30T07:51:01.540Z,140
2017-08-30T07:52:02.205Z,140
2017-08-30T07:53:02.872Z,146
2017-08-30T07:54:03.539Z,146
2017-08-30T07:55:04.454Z,146
2017-08-30T07:56:05.121Z,146
2017-08-30T07:57:05.789Z,146
2017-08-30T07:58:06.453Z,151
2017-08-30T07:59:07.118Z,151
2017-08-30T08:00:08.084Z,151
2017-08-30T08:01:08.751Z,151
2017-08-30T08:02:09.416Z,151
2017-08-30T08:03:10.081Z,151
2017-08-30T08:04:10.748Z,151
2017-08-30T08:05:11.682Z,151
2017-08-30T08:06:12.330Z,151
2017-08-30T08:07:12.994Z,151
2017-08-30T08:08:13.695Z,157
2017-08-30T08:09:14.360Z,157
2017-08-30T08:10:15.275Z,157
2017-08-30T08:11:15.938Z,157
2017-08-30T08:12:16.603Z,168
2017-08-30T08:13:17.269Z,168
2017-08-30T08:14:17.934Z,163
2017-08-30T08:15:18.849Z,168
2017-08-30T08:16:19.516Z,168
2017-08-30T08:17:20.180Z,168
2017-08-30T08:18:20.847Z,168
2017-08-30T08:19:21.512Z,174
2017-08-30T08:20:22.428Z,174
2017-08-30T08:21:23.097Z,174
2017-08-30T08:22:23.761Z,174
2017-08-30T08:23:24.427Z,180
2017-08-30T08:24:25.093Z,180
2017-08-30T08:25:26.059Z,185
2017-08-30T08:26:26.724Z,185
2017-08-30T08:27:27.391Z,185
2017-08-30T08:28:28.056Z,185
2017-08-30T08:29:28.722Z,191
2017-08-30T08:30:29.691Z,191
2017-08-30T08:31:30.355Z,191
2017-08-30T08:32:31.020Z,196
2017-08-30T08:33:31.684Z,196
2017-08-30T08:34:32.356Z,202
2017-08-30T08:35:33.267Z,208
2017-08-30T08:36:33.932Z,208
2017-08-30T08:37:34.599Z,208
2017-08-30T08:38:35.266Z,208
2017-08-30T08:39:35.931Z,213
2017-08-30T08:40:36.897Z,213
2017-08-30T08:41:37.563Z,213
2017-08-30T08:42:38.228Z,219
2017-08-30T08:43:38.895Z,219
2017-08-30T08:44:39.598Z,225
2017-08-30T08:45:40.564Z,225
2017-08-30T08:46:41.231Z,225
2017-08-30T08:47:41.895Z,236
2017-08-30T08:48:42.562Z,236
2017-08-30T08:49:43.264Z,241
2017-08-30T08:50:44.218Z,247
2017-08-30T08:51:44.884Z,253
2017-08-30T08:52:45.552Z,253
2017-08-30T08:53:46.219Z,258
2017-08-30T08:54:46.885Z,258
2017-08-30T08:55:47.803Z,264
2017-08-30T08:56:48.471Z,264
2017-08-30T08:57:49.139Z,270
2017-08-30T08:58:49.814Z,270
2017-08-30T08:59:50.481Z,275
2017-08-30T09:00:51.398Z,270
2017-08-30T09:01:52.067Z,281
2017-08-30T09:02:52.736Z,281
2017-08-30T09:03:53.405Z,292
2017-08-30T09:04:54.072Z,298
2017-08-30T09:05:54.988Z,298
2017-08-30T09:06:55.656Z,303
2017-08-30T09:07:56.324Z,309
2017-08-30T09:08:56.993Z,309
2017-08-30T09:09:57.662Z,315
2017-08-30T09:10:58.581Z,315
2017-08-30T09:11:59.249Z,326
2017-08-30T09:12:59.919Z,320
2017-08-30T09:14:00.586Z,326
2017-08-30T09:15:01.259Z,326
2017-08-30T09:16:02.174Z,326
2017-08-30T09:17:02.843Z,326
2017-08-30T09:18:03.509Z,337
2017-08-30T09:19:04.178Z,337
2017-08-30T09:20:04.852Z,331
2017-08-30T09:21:05.764Z,337
2017-08-30T09:22:06.433Z,343
2017-08-30T09:23:07.103Z,348
2017-08-30T09:24:07.770Z,354
2017-08-30T09:25:08.436Z,354
2017-08-30T09:26:09.355Z,348
2017-08-30T09:27:10.026Z,343
2017-08-30T09:28:10.697Z,343
2017-08-30T09:29:11.369Z,343
2017-08-30T09:30:12.036Z,348
2017-08-30T09:31:12.960Z,354
2017-08-30T09:32:13.645Z,354
2017-08-30T09:33:14.291Z,354
2017-08-30T09:34:14.959Z,360
2017-08-30T09:35:15.628Z,365
2017-08-30T09:36:16.547Z,382
2017-08-30T09:37:17.215Z,393
2017-08-30T09:38:17.882Z,399
2017-08-30T09:39:18.550Z,399
2017-08-30T09:40:19.220Z,405
2017-08-30T09:41:20.139Z,410
2017-08-30T09:42:20.807Z,427
2017-08-30T09:43:21.475Z,444
2017-08-30T09:44:22.178Z,444
2017-08-30T09:45:22.846Z,455
2017-08-30T09:46:23.817Z,455
2017-08-30T09:47:24.487Z,466
2017-08-30T09:48:25.156Z,472
2017-08-30T09:49:25.824Z,472
2017-08-30T09:50:26.493Z,478
2017-08-30T09:51:27.414Z,511
2017-08-30T09:52:28.083Z,511
2017-08-30T09:53:28.754Z,534
2017-08-30T09:54:29.423Z,551
2017-08-30T09:55:30.093Z,579
2017-08-30T09:56:31.009Z,618
2017-08-30T09:57:31.679Z,1018
2017-08-30T09:58:32.348Z,1985
2017-08-30T09:59:33.019Z,2705
2017-08-30T10:00:33.690Z,2660
2017-08-30T10:01:34.661Z,2418
2017-08-30T10:02:35.343Z,1985
2017-08-30T10:03:36.002Z,2385
2017-08-30T10:04:36.671Z,2081
2017-08-30T10:05:37.342Z,2086
2017-08-30T10:06:38.262Z,1867
2017-08-30T10:07:38.933Z,1845
2017-08-30T10:08:39.641Z,1715
2017-08-30T10:09:40.310Z,1828
2017-08-30T10:10:41.014Z,1479
2017-08-30T10:11:41.934Z,1254
2017-08-30T10:12:42.606Z,1423
2017-08-30T10:13:43.276Z,1771
2017-08-30T10:14:43.947Z,1800
2017-08-30T10:15:44.616Z,1715
2017-08-30T10:16:45.536Z,1625
2017-08-30T10:17:46.206Z,1389
2017-08-30T10:18:46.877Z,1333
2017-08-30T10:19:47.545Z,933
2017-08-30T10:20:48.220Z,1209
2017-08-30T10:21:49.140Z,1333
2017-08-30T10:22:49.810Z,1378
2017-08-30T10:23:50.480Z,1400
2017-08-30T10:24:51.149Z,1361
2017-08-30T10:25:51.819Z,1231
2017-08-30T10:26:52.739Z,1141
2017-08-30T10:27:53.409Z,984
2017-08-30T10:28:54.083Z,860
2017-08-30T10:29:54.747Z,697
2017-08-30T10:30:55.415Z,573
2017-08-30T10:31:56.382Z,556
2017-08-30T10:32:57.058Z,534
2017-08-30T10:33:57.759Z,495
2017-08-30T10:34:58.435Z,450
2017-08-30T10:35:59.099Z,433
2017-08-30T10:37:00.053Z,388
2017-08-30T10:38:00.726Z,393
2017-08-30T10:39:01.389Z,348
2017-08-30T10:40:02.060Z,343
2017-08-30T10:41:02.728Z,371
2017-08-30T10:42:03.697Z,376
2017-08-30T10:43:04.366Z,360
2017-08-30T10:44:05.034Z,360
2017-08-30T10:45:05.701Z,371
2017-08-30T10:46:06.370Z,382
2017-08-30T10:47:07.289Z,444
2017-08-30T10:48:07.958Z,483
2017-08-30T10:49:08.625Z,466
2017-08-30T10:50:09.292Z,450
2017-08-30T10:51:09.962Z,472
2017-08-30T10:52:10.881Z,523
2017-08-30T10:53:11.549Z,495
2017-08-30T10:54:12.219Z,523
2017-08-30T10:55:12.890Z,483
2017-08-30T10:56:13.553Z,511
2017-08-30T10:57:14.521Z,753
2017-08-30T10:58:15.192Z,691
2017-08-30T10:59:15.860Z,669
2017-08-30T11:00:16.527Z,697
2017-08-30T11:01:17.197Z,703
2017-08-30T11:02:18.168Z,658
2017-08-30T11:03:18.839Z,675
2017-08-30T11:04:19.506Z,506
2017-08-30T11:05:20.173Z,523
2017-08-30T11:06:20.841Z,618
2017-08-30T11:07:21.760Z,607
2017-08-30T11:08:22.434Z,838
2017-08-30T11:09:23.099Z,601
2017-08-30T11:10:23.768Z,427
2017-08-30T11:11:24.435Z,405
2017-08-30T11:12:25.353Z,472
2017-08-30T11:13:26.020Z,388
2017-08-30T11:14:26.688Z,388
2017-08-30T11:15:27.358Z,427
2017-08-30T11:16:28.026Z,506
2017-08-30T11:17:28.945Z,534
2017-08-30T11:18:29.614Z,523
2017-08-30T11:19:30.282Z,680
2017-08-30T11:20:30.950Z,691
2017-08-30T11:21:31.620Z,669
2017-08-30T11:22:32.539Z,658
2017-08-30T11:23:33.206Z,720
2017-08-30T11:24:33.875Z,652
2017-08-30T11:25:34.555Z,658
2017-08-30T11:26:35.260Z,624
2017-08-30T11:27:36.178Z,568
2017-08-30T11:28:36.848Z,630
2017-08-30T11:29:37.521Z,635
2017-08-30T11:30:38.184Z,675
2017-08-30T11:31:38.853Z,821
2017-08-30T11:32:39.827Z,984
2017-08-30T11:33:40.494Z,1018
2017-08-30T11:34:41.164Z,1029
2017-08-30T11:35:41.836Z,1046
2017-08-30T11:36:42.507Z,1046
2017-08-30T11:37:43.432Z,1063
2017-08-30T11:38:44.099Z,1063
2017-08-30T11:39:44.770Z,1063
2017-08-30T11:40:45.440Z,1040
2017-08-30T11:41:46.113Z,1051
2017-08-30T11:42:47.035Z,1074
2017-08-30T11:43:47.706Z,1091
2017-08-30T11:44:48.379Z,1096
2017-08-30T11:45:49.054Z,1085
2017-08-30T11:46:49.727Z,1091
2017-08-30T11:47:50.702Z,1096
2017-08-30T11:48:51.377Z,1102
2017-08-30T11:49:52.051Z,1119
2017-08-30T11:50:52.724Z,1119
2017-08-30T11:51:53.398Z,1130
2017-08-30T11:52:54.322Z,1136
2017-08-30T11:53:54.997Z,1153
2017-08-30T11:54:55.672Z,1175
2017-08-30T11:55:56.345Z,1170
2017-08-30T11:56:57.020Z,1175
2017-08-30T11:57:57.947Z,1170
2017-08-30T11:58:58.622Z,1164
2017-08-30T11:59:59.298Z,1170
2017-08-30T12:00:59.971Z,1186
2017-08-30T12:02:00.647Z,1203
2017-08-30T12:03:01.624Z,1288
2017-08-30T12:04:02.302Z,1417
2017-08-30T12:05:02.975Z,1648
2017-08-30T12:06:03.650Z,2036
2017-08-30T12:07:04.376Z,2289
2017-08-30T12:08:05.302Z,2430
2017-08-30T12:09:05.977Z,2520
2017-08-30T12:10:06.688Z,2508
2017-08-30T12:11:07.364Z,2497
2017-08-30T12:12:08.039Z,2441
2017-08-30T12:13:08.963Z,2413
2017-08-30T12:14:09.642Z,2283
2017-08-30T12:15:10.313Z,2013
2017-08-30T12:16:10.993Z,1940
2017-08-30T12:17:11.665Z,1867
2017-08-30T12:18:12.639Z,1715
2017-08-30T12:19:13.315Z,1524
2017-08-30T12:20:13.989Z,1603
2017-08-30T12:21:14.663Z,2036
2017-08-30T12:22:15.341Z,1929
2017-08-30T12:23:16.266Z,2103
2017-08-30T12:24:16.939Z,1800
2017-08-30T12:25:17.612Z,1428
2017-08-30T12:26:18.285Z,1164
2017-08-30T12:27:18.960Z,922
2017-08-30T12:28:19.883Z,759
2017-08-30T12:29:20.555Z,978
2017-08-30T12:30:21.226Z,855
2017-08-30T12:31:21.899Z,630
2017-08-30T12:32:22.570Z,624
2017-08-30T12:33:23.543Z,669
2017-08-30T12:34:24.217Z,601
2017-08-30T12:35:24.924Z,658
2017-08-30T12:36:25.562Z,708
2017-08-30T12:37:26.234Z,866
2017-08-30T12:38:27.159Z,1051
2017-08-30T12:39:27.829Z,1158
2017-08-30T12:40:28.502Z,1018
2017-08-30T12:41:29.173Z,1181
2017-08-30T12:42:29.847Z,1170
2017-08-30T12:43:30.772Z,1102
2017-08-30T12:44:31.481Z,1125
2017-08-30T12:45:32.154Z,1057
2017-08-30T12:46:32.861Z,1057
2017-08-30T12:47:33.532Z,922
2017-08-30T12:48:34.511Z,1001
2017-08-30T12:49:35.182Z,1040
2017-08-30T12:50:35.857Z,1158
2017-08-30T12:51:36.531Z,1186
2017-08-30T12:52:37.205Z,1175
2017-08-30T12:53:38.179Z,1181
2017-08-30T12:54:38.852Z,1254
2017-08-30T12:55:39.525Z,1265
2017-08-30T12:56:40.196Z,1344
2017-08-30T12:57:40.870Z,1361
2017-08-30T12:58:41.798Z,1344
2017-08-30T12:59:42.465Z,1417
2017-08-30T13:00:43.139Z,1783
2017-08-30T13:01:43.812Z,2047
2017-08-30T13:02:44.522Z,2019
2017-08-30T13:03:46.330Z,2058
2017-08-30T13:04:47.004Z,2098
2017-08-30T13:05:47.677Z,1586
2017-08-30T13:06:48.351Z,933
2017-08-30T13:07:49.023Z,888
2017-08-30T13:08:49.996Z,1080
2017-08-30T13:09:50.706Z,1665
2017-08-30T13:10:51.414Z,1951
2017-08-30T13:11:52.087Z,1501
2017-08-30T13:12:52.761Z,1980
2017-08-30T13:13:53.684Z,2053
2017-08-30T13:14:54.355Z,2070
2017-08-30T13:15:55.026Z,1974
2017-08-30T13:16:55.698Z,1771
2017-08-30T13:17:56.374Z,1974
2017-08-30T13:18:57.291Z,2030
2017-08-30T13:19:58.000Z,2002
2017-08-30T13:20:58.671Z,1811
2017-08-30T13:21:59.343Z,1636
2017-08-30T13:23:00.018Z,1580
2017-08-30T13:24:00.940Z,1856
2017-08-30T13:25:01.614Z,1890
2017-08-30T13:26:02.287Z,1563
2017-08-30T13:27:02.961Z,1333
2017-08-30T13:28:03.643Z,1226
2017-08-30T13:29:04.595Z,1186
2017-08-30T13:30:05.267Z,1091
2017-08-30T13:31:05.939Z,978
2017-08-30T13:32:06.612Z,1164
2017-08-30T13:33:07.322Z,1186
2017-08-30T13:34:08.294Z,1164
2017-08-30T13:35:08.968Z,1164
2017-08-30T13:36:09.640Z,1158
2017-08-30T13:37:10.312Z,1158
2017-08-30T13:38:10.985Z,1158
2017-08-30T13:39:11.907Z,1102
2017-08-30T13:40:12.581Z,1113
2017-08-30T13:41:13.290Z,1108
2017-08-30T13:42:13.963Z,1085
2017-08-30T13:43:14.635Z,1068
2017-08-30T13:44:15.556Z,1085
2017-08-30T13:45:16.229Z,1085
2017-08-30T13:46:16.900Z,1051
2017-08-30T13:47:17.577Z,1023
2017-08-30T13:48:18.251Z,1057
2017-08-30T13:49:19.177Z,1091
2017-08-30T13:50:19.848Z,1113
2017-08-30T13:51:20.522Z,1068
2017-08-30T13:52:21.229Z,1068
2017-08-30T13:53:21.902Z,1102
2017-08-30T13:54:22.875Z,1125
2017-08-30T13:55:23.549Z,995
2017-08-30T13:56:24.222Z,793
2017-08-30T13:57:24.893Z,753
2017-08-30T13:58:25.563Z,635
2017-08-30T13:59:26.535Z,720
2017-08-30T14:00:27.208Z,928
2017-08-30T14:01:27.914Z,939
2017-08-30T14:02:28.592Z,849
2017-08-30T14:03:29.265Z,725
2017-08-30T14:04:30.189Z,1068
2017-08-30T14:05:30.860Z,1276
2017-08-30T14:06:31.529Z,855
2017-08-30T14:07:32.200Z,748
2017-08-30T14:08:32.869Z,601
2017-08-30T14:09:33.839Z,736
2017-08-30T14:10:34.512Z,1119
2017-08-30T14:11:35.183Z,1276
2017-08-30T14:12:35.854Z,1215
2017-08-30T14:13:36.525Z,1203
2017-08-30T14:14:37.496Z,1321